Terminal Aerodrome Forecast
Issued by NWS

Home | Current Version | Previous Version | Text Only | Print | Product List | Glossary Off
Versions: 1 2 3 4 5 6 7 8 9 10 11 12 13 14 15 16 17 18 19 20 21 22 23 24 25 26

000
FTUS43 KABR 290000 AAA
TAFPIR
TAF AMD
KPIR 290038Z 2901/2924 08014KT 2SM -SN BR SCT007 OVC040
     FM290600 04014KT 1SM -SN BR OVC015
     FM291100 36011KT 3SM -SN BR SCT015 OVC060
     FM291800 33010KT P6SM SKC=

USA.gov is the U.S. government's official web portal to all federal, state and local government web resources and services.